sensor_id;sensor_type;location;lat;lon;timestamp;pressure;altitude;pressure_sealevel;temperature;humidity
35224;BME280;21367;51.930;8.112;2023-08-31T00:03:46;100157.00;;;12.01;100.00
35224;BME280;21367;51.930;8.112;2023-08-31T00:08:52;100152.66;;;11.98;100.00
35224;BME280;21367;51.930;8.112;2023-08-31T00:13:56;100154.75;;;11.83;100.00
35224;BME280;21367;51.930;8.112;2023-08-31T00:18:59;100152.97;;;11.80;100.00
35224;BME280;21367;51.930;8.112;2023-08-31T00:24:06;100153.03;;;11.82;100.00
35224;BME280;21367;51.930;8.112;2023-08-31T00:29:11;100153.09;;;11.55;100.00
35224;BME280;21367;51.930;8.112;2023-08-31T00:34:15;100153.19;;;11.87;100.00
35224;BME280;21367;51.930;8.112;2023-08-31T00:39:21;100158.13;;;11.80;100.00
35224;BME280;21367;51.930;8.112;2023-08-31T00:44:25;100164.31;;;11.86;100.00
35224;BME280;21367;51.930;8.112;2023-08-31T00:49:29;100165.53;;;11.98;100.00
35224;BME280;21367;51.930;8.112;2023-08-31T00:54:36;100162.78;;;12.24;100.00
35224;BME280;21367;51.930;8.112;2023-08-31T00:59:43;100162.06;;;12.30;100.00
35224;BME280;21367;51.930;8.112;2023-08-31T01:04:51;100161.38;;;12.37;100.00
35224;BME280;21367;51.930;8.112;2023-08-31T01:10:10;100161.38;;;12.35;100.00
35224;BME280;21367;51.930;8.112;2023-08-31T01:15:17;100166.72;;;12.11;100.00
35224;BME280;21367;51.930;8.112;2023-08-31T01:20:28;100164.19;;;12.44;100.00
35224;BME280;21367;51.930;8.112;2023-08-31T01:25:35;100162.81;;;12.25;100.00
35224;BME280;21367;51.930;8.112;2023-08-31T01:30:40;100160.47;;;12.01;100.00
35224;BME280;21367;51.930;8.112;2023-08-31T01:35:48;100155.81;;;12.21;100.00
35224;BME280;21367;51.930;8.112;2023-08-31T01:41:00;100160.09;;;12.19;100.00
35224;BME280;21367;51.930;8.112;2023-08-31T01:46:04;100153.72;;;12.40;100.00
35224;BME280;21367;51.930;8.112;2023-08-31T01:51:09;100159.84;;;12.43;100.00
35224;BME280;21367;51.930;8.112;2023-08-31T01:56:16;100165.44;;;12.60;100.00
35224;BME280;21367;51.930;8.112;2023-08-31T02:01:22;100162.81;;;12.59;100.00
35224;BME280;21367;51.930;8.112;2023-08-31T02:06:26;100156.22;;;12.70;100.00
35224;BME280;21367;51.930;8.112;2023-08-31T02:11:32;100153.72;;;12.38;100.00
35224;BME280;21367;51.930;8.112;2023-08-31T02:16:38;100151.38;;;12.49;100.00
35224;BME280;21367;51.930;8.112;2023-08-31T02:21:42;100150.69;;;12.55;100.00
35224;BME280;21367;51.930;8.112;2023-08-31T02:26:50;100145.81;;;12.32;100.00
35224;BME280;21367;51.930;8.112;2023-08-31T02:31:53;100152.03;;;12.40;100.00
35224;BME280;21367;51.930;8.112;2023-08-31T02:36:57;100156.75;;;12.23;100.00
35224;BME280;21367;51.930;8.112;2023-08-31T02:42:05;100168.72;;;12.21;100.00
35224;BME280;21367;51.930;8.112;2023-08-31T02:47:08;100170.69;;;11.98;100.00
35224;BME280;21367;51.930;8.112;2023-08-31T02:52:12;100166.97;;;11.89;100.00
35224;BME280;21367;51.930;8.112;2023-08-31T02:57:18;100166.97;;;11.89;100.00
35224;BME280;21367;51.930;8.112;2023-08-31T03:02:23;100164.09;;;11.79;100.00
35224;BME280;21367;51.930;8.112;2023-08-31T03:07:26;100160.50;;;11.74;100.00
35224;BME280;21367;51.930;8.112;2023-08-31T03:12:32;100158.59;;;11.67;100.00
35224;BME280;21367;51.930;8.112;2023-08-31T03:17:39;100160.88;;;11.56;100.00
35224;BME280;21367;51.930;8.112;2023-08-31T03:22:43;100164.13;;;11.81;100.00
35224;BME280;21367;51.930;8.112;2023-08-31T03:27:50;100164.63;;;11.68;100.00
35224;BME280;21367;51.930;8.112;2023-08-31T03:32:53;100167.63;;;11.83;100.00
35224;BME280;21367;51.930;8.112;2023-08-31T03:37:57;100167.03;;;11.62;100.00
35224;BME280;21367;51.930;8.112;2023-08-31T03:43:05;100171.66;;;11.73;100.00
35224;BME280;21367;51.930;8.112;2023-08-31T03:48:08;100171.50;;;11.69;100.00
35224;BME280;21367;51.930;8.112;2023-08-31T03:53:12;100171.75;;;11.76;100.00
35224;BME280;21367;51.930;8.112;2023-08-31T03:58:18;100171.91;;;11.52;100.00
35224;BME280;21367;51.930;8.112;2023-08-31T04:03:25;100188.34;;;11.29;100.00
35224;BME280;21367;51.930;8.112;2023-08-31T04:08:28;100196.00;;;11.56;100.00
35224;BME280;21367;51.930;8.112;2023-08-31T04:13:35;100208.84;;;11.26;100.00
35224;BME280;21367;51.930;8.112;2023-08-31T04:18:38;100215.19;;;11.37;100.00
35224;BME280;21367;51.930;8.112;2023-08-31T04:23:42;100216.59;;;11.27;100.00
35224;BME280;21367;51.930;8.112;2023-08-31T04:28:48;100220.94;;;11.28;100.00
35224;BME280;21367;51.930;8.112;2023-08-31T04:33:52;100216.66;;;11.29;100.00
35224;BME280;21367;51.930;8.112;2023-08-31T04:38:56;100228.47;;;11.22;100.00
35224;BME280;21367;51.930;8.112;2023-08-31T04:44:03;100227.66;;;11.25;100.00
35224;BME280;21367;51.930;8.112;2023-08-31T04:49:06;100218.19;;;11.24;100.00
35224;BME280;21367;51.930;8.112;2023-08-31T04:54:10;100226.16;;;11.31;100.00
35224;BME280;21367;51.930;8.112;2023-08-31T04:59:16;100225.75;;;11.46;100.00
35224;BME280;21367;51.930;8.112;2023-08-31T05:04:21;100226.16;;;11.31;100.00
35224;BME280;21367;51.930;8.112;2023-08-31T05:09:25;100236.66;;;11.38;100.00
35224;BME280;21367;51.930;8.112;2023-08-31T05:14:35;100238.22;;;11.34;100.00
35224;BME280;21367;51.930;8.112;2023-08-31T05:19:40;100253.72;;;11.35;100.00
35224;BME280;21367;51.930;8.112;2023-08-31T05:24:44;100254.47;;;11.31;100.00
35224;BME280;21367;51.930;8.112;2023-08-31T05:29:50;100262.84;;;11.53;100.00
35224;BME280;21367;51.930;8.112;2023-08-31T05:34:54;100260.13;;;11.48;100.00
35224;BME280;21367;51.930;8.112;2023-08-31T05:39:59;100265.81;;;11.38;100.00
35224;BME280;21367;51.930;8.112;2023-08-31T05:45:09;100263.59;;;11.77;100.00
35224;BME280;21367;51.930;8.112;2023-08-31T05:50:13;100264.25;;;11.72;100.00
35224;BME280;21367;51.930;8.112;2023-08-31T05:55:17;100266.34;;;11.55;100.00
35224;BME280;21367;51.930;8.112;2023-08-31T06:00:23;100267.69;;;11.71;100.00
35224;BME280;21367;51.930;8.112;2023-08-31T06:05:27;100273.50;;;11.92;100.00
35224;BME280;21367;51.930;8.112;2023-08-31T06:10:32;100267.63;;;12.26;100.00
35224;BME280;21367;51.930;8.112;2023-08-31T06:15:38;100276.13;;;12.24;100.00
35224;BME280;21367;51.930;8.112;2023-08-31T06:20:42;100281.97;;;12.18;100.00
35224;BME280;21367;51.930;8.112;2023-08-31T06:25:45;100283.66;;;12.16;100.00
35224;BME280;21367;51.930;8.112;2023-08-31T06:30:52;100274.44;;;12.24;100.00
35224;BME280;21367;51.930;8.112;2023-08-31T06:35:55;100282.59;;;12.40;100.00
35224;BME280;21367;51.930;8.112;2023-08-31T06:40:59;100293.75;;;12.39;100.00
35224;BME280;21367;51.930;8.112;2023-08-31T06:46:05;100286.00;;;12.70;100.00
35224;BME280;21367;51.930;8.112;2023-08-31T06:51:09;100289.59;;;12.76;100.00
35224;BME280;21367;51.930;8.112;2023-08-31T06:56:12;100294.59;;;12.71;100.00
35224;BME280;21367;51.930;8.112;2023-08-31T07:01:18;100291.84;;;12.96;100.00
35224;BME280;21367;51.930;8.112;2023-08-31T07:06:22;100301.97;;;12.89;100.00
35224;BME280;21367;51.930;8.112;2023-08-31T07:11:26;100305.03;;;13.07;100.00
35224;BME280;21367;51.930;8.112;2023-08-31T07:16:32;100309.03;;;12.96;100.00
35224;BME280;21367;51.930;8.112;2023-08-31T07:21:36;100309.84;;;13.27;100.00
35224;BME280;21367;51.930;8.112;2023-08-31T07:26:40;100312.00;;;13.13;100.00
35224;BME280;21367;51.930;8.112;2023-08-31T07:31:46;100314.31;;;13.01;100.00
35224;BME280;21367;51.930;8.112;2023-08-31T07:36:50;100324.03;;;13.11;100.00
35224;BME280;21367;51.930;8.112;2023-08-31T07:41:54;100318.25;;;12.88;100.00
35224;BME280;21367;51.930;8.112;2023-08-31T07:47:00;100314.41;;;13.04;100.00
35224;BME280;21367;51.930;8.112;2023-08-31T07:52:04;100320.22;;;13.30;100.00
35224;BME280;21367;51.930;8.112;2023-08-31T07:57:07;100323.19;;;13.45;100.00
35224;BME280;21367;51.930;8.112;2023-08-31T08:02:14;100330.63;;;13.69;100.00
35224;BME280;21367;51.930;8.112;2023-08-31T08:07:18;100335.25;;;13.82;100.00
35224;BME280;21367;51.930;8.112;2023-08-31T08:12:22;100335.03;;;13.73;100.00
35224;BME280;21367;51.930;8.112;2023-08-31T08:17:28;100336.34;;;14.33;100.00
35224;BME280;21367;51.930;8.112;2023-08-31T08:22:32;100334.25;;;14.54;100.00
35224;BME280;21367;51.930;8.112;2023-08-31T08:27:36;100344.38;;;14.45;100.00
35224;BME280;21367;51.930;8.112;2023-08-31T08:32:43;100348.13;;;14.60;100.00
35224;BME280;21367;51.930;8.112;2023-08-31T08:37:46;100353.28;;;14.58;100.00
35224;BME280;21367;51.930;8.112;2023-08-31T08:42:52;100352.00;;;14.81;100.00
35224;BME280;21367;51.930;8.112;2023-08-31T08:47:59;100356.63;;;14.98;100.00
35224;BME280;21367;51.930;8.112;2023-08-31T08:53:04;100360.34;;;14.67;100.00
35224;BME280;21367;51.930;8.112;2023-08-31T08:58:07;100361.81;;;14.99;100.00
35224;BME280;21367;51.930;8.112;2023-08-31T09:03:14;100358.53;;;15.60;100.00
35224;BME280;21367;51.930;8.112;2023-08-31T09:08:25;100357.09;;;15.24;100.00
35224;BME280;21367;51.930;8.112;2023-08-31T09:13:30;100356.22;;;15.75;97.19
35224;BME280;21367;51.930;8.112;2023-08-31T09:18:37;100359.50;;;15.65;98.70
35224;BME280;21367;51.930;8.112;2023-08-31T09:23:40;100359.78;;;15.30;97.55
35224;BME280;21367;51.930;8.112;2023-08-31T09:28:44;100373.44;;;15.71;99.15
35224;BME280;21367;51.930;8.112;2023-08-31T09:33:53;100362.31;;;15.79;96.09
35224;BME280;21367;51.930;8.112;2023-08-31T09:38:58;100370.78;;;15.67;95.72
35224;BME280;21367;51.930;8.112;2023-08-31T09:44:14;100357.88;;;16.31;93.45
35224;BME280;21367;51.930;8.112;2023-08-31T09:49:22;100356.44;;;16.54;94.30
35224;BME280;21367;51.930;8.112;2023-08-31T09:54:28;100345.59;;;16.86;90.48
35224;BME280;21367;51.930;8.112;2023-08-31T09:59:33;100351.16;;;17.26;88.99
35224;BME280;21367;51.930;8.112;2023-08-31T10:04:40;100356.94;;;16.97;88.23
35224;BME280;21367;51.930;8.112;2023-08-31T10:09:44;100354.56;;;17.20;85.28
35224;BME280;21367;51.930;8.112;2023-08-31T10:14:48;100354.56;;;17.20;83.83
35224;BME280;21367;51.930;8.112;2023-08-31T10:19:56;100353.19;;;17.61;83.99
35224;BME280;21367;51.930;8.112;2023-08-31T10:25:01;100372.50;;;17.90;79.14
35224;BME280;21367;51.930;8.112;2023-08-31T10:30:14;100374.91;;;17.69;79.73
35224;BME280;21367;51.930;8.112;2023-08-31T10:35:21;100370.22;;;17.25;86.04
35224;BME280;21367;51.930;8.112;2023-08-31T10:40:24;100367.41;;;17.03;88.72
35224;BME280;21367;51.930;8.112;2023-08-31T10:45:28;100374.84;;;17.61;87.76
35224;BME280;21367;51.930;8.112;2023-08-31T10:50:41;100358.06;;;18.46;78.53
35224;BME280;21367;51.930;8.112;2023-08-31T10:55:50;100368.50;;;18.54;76.32
35224;BME280;21367;51.930;8.112;2023-08-31T11:00:54;100356.72;;;17.73;74.95
35224;BME280;21367;51.930;8.112;2023-08-31T11:06:02;100357.38;;;18.94;76.03
35224;BME280;21367;51.930;8.112;2023-08-31T11:11:05;100350.44;;;18.98;69.77
35224;BME280;21367;51.930;8.112;2023-08-31T11:16:09;100354.78;;;20.05;71.66
35224;BME280;21367;51.930;8.112;2023-08-31T11:21:15;100353.94;;;20.09;65.11
35224;BME280;21367;51.930;8.112;2023-08-31T11:26:19;100367.88;;;19.77;65.83
35224;BME280;21367;51.930;8.112;2023-08-31T11:31:23;100355.50;;;20.62;64.33
35224;BME280;21367;51.930;8.112;2023-08-31T11:36:31;100364.03;;;20.92;63.03
35224;BME280;21367;51.930;8.112;2023-08-31T11:41:35;100367.00;;;19.91;65.29
35224;BME280;21367;51.930;8.112;2023-08-31T11:46:44;100365.25;;;19.34;67.67
35224;BME280;21367;51.930;8.112;2023-08-31T11:51:53;100356.44;;;20.33;64.71
35224;BME280;21367;51.930;8.112;2023-08-31T11:56:57;100351.63;;;21.26;62.05
35224;BME280;21367;51.930;8.112;2023-08-31T12:02:01;100378.13;;;20.55;62.60
35224;BME280;21367;51.930;8.112;2023-08-31T12:07:07;100373.59;;;20.93;62.26
35224;BME280;21367;51.930;8.112;2023-08-31T12:12:11;100372.25;;;19.75;64.85
35224;BME280;21367;51.930;8.112;2023-08-31T12:17:18;100365.09;;;20.45;65.50
35224;BME280;21367;51.930;8.112;2023-08-31T12:22:24;100370.97;;;20.97;62.46
35224;BME280;21367;51.930;8.112;2023-08-31T12:27:28;100374.78;;;20.14;63.37
35224;BME280;21367;51.930;8.112;2023-08-31T12:32:32;100374.56;;;21.97;60.25
35224;BME280;21367;51.930;8.112;2023-08-31T12:37:38;100359.94;;;22.57;54.87
35224;BME280;21367;51.930;8.112;2023-08-31T12:42:42;100365.03;;;22.70;55.62
35224;BME280;21367;51.930;8.112;2023-08-31T12:47:46;100354.91;;;23.08;53.50
35224;BME280;21367;51.930;8.112;2023-08-31T12:52:52;100374.41;;;22.13;55.05
35224;BME280;21367;51.930;8.112;2023-08-31T12:57:56;100378.03;;;20.85;60.45
35224;BME280;21367;51.930;8.112;2023-08-31T13:02:59;100395.53;;;20.66;61.29
35224;BME280;21367;51.930;8.112;2023-08-31T13:08:06;100391.06;;;20.88;61.24
35224;BME280;21367;51.930;8.112;2023-08-31T13:13:10;100390.41;;;20.23;64.28
35224;BME280;21367;51.930;8.112;2023-08-31T13:18:14;100399.16;;;19.53;68.66
35224;BME280;21367;51.930;8.112;2023-08-31T13:23:21;100463.38;;;19.18;72.93
35224;BME280;21367;51.930;8.112;2023-08-31T13:28:25;100471.53;;;18.22;87.29
35224;BME280;21367;51.930;8.112;2023-08-31T13:33:29;100444.94;;;17.52;90.58
35224;BME280;21367;51.930;8.112;2023-08-31T13:38:35;100416.69;;;17.89;89.83
35224;BME280;21367;51.930;8.112;2023-08-31T13:43:39;100424.28;;;19.14;83.97
35224;BME280;21367;51.930;8.112;2023-08-31T13:48:43;100428.72;;;19.92;84.00
35224;BME280;21367;51.930;8.112;2023-08-31T13:53:51;100435.56;;;20.69;78.80
35224;BME280;21367;51.930;8.112;2023-08-31T13:58:54;100430.03;;;21.29;77.42
35224;BME280;21367;51.930;8.112;2023-08-31T14:04:00;100424.28;;;20.63;73.47
35224;BME280;21367;51.930;8.112;2023-08-31T14:09:07;100425.75;;;21.14;72.44
35224;BME280;21367;51.930;8.112;2023-08-31T14:14:11;100420.84;;;20.31;74.74
35224;BME280;21367;51.930;8.112;2023-08-31T14:19:15;100421.44;;;22.24;69.76
35224;BME280;21367;51.930;8.112;2023-08-31T14:24:23;100422.13;;;21.40;72.68
35224;BME280;21367;51.930;8.112;2023-08-31T14:29:26;100420.66;;;22.16;70.08
35224;BME280;21367;51.930;8.112;2023-08-31T14:34:30;100415.13;;;22.40;69.48
35224;BME280;21367;51.930;8.112;2023-08-31T14:39:36;100425.84;;;24.11;66.12
35224;BME280;21367;51.930;8.112;2023-08-31T14:44:40;100409.84;;;24.23;66.26
35224;BME280;21367;51.930;8.112;2023-08-31T14:49:44;100408.19;;;24.64;63.17
35224;BME280;21367;51.930;8.112;2023-08-31T14:54:51;100425.13;;;24.92;61.22
35224;BME280;21367;51.930;8.112;2023-08-31T14:59:55;100439.22;;;25.66;62.74
35224;BME280;21367;51.930;8.112;2023-08-31T15:04:59;100440.97;;;26.03;60.24
35224;BME280;21367;51.930;8.112;2023-08-31T15:10:07;100449.34;;;23.63;62.88
35224;BME280;21367;51.930;8.112;2023-08-31T15:15:11;100440.78;;;26.11;59.63
35224;BME280;21367;51.930;8.112;2023-08-31T15:20:15;100431.84;;;26.47;56.01
35224;BME280;21367;51.930;8.112;2023-08-31T15:25:21;100440.50;;;27.13;56.28
35224;BME280;21367;51.930;8.112;2023-08-31T15:30:25;100427.88;;;26.95;55.17
35224;BME280;21367;51.930;8.112;2023-08-31T15:35:29;100455.44;;;25.09;61.88
35224;BME280;21367;51.930;8.112;2023-08-31T15:40:35;100462.22;;;23.21;67.92
35224;BME280;21367;51.930;8.112;2023-08-31T15:45:44;100475.47;;;22.34;70.61
35224;BME280;21367;51.930;8.112;2023-08-31T15:50:48;100468.53;;;23.06;67.94
35224;BME280;21367;51.930;8.112;2023-08-31T15:55:55;100473.59;;;21.29;72.81
35224;BME280;21367;51.930;8.112;2023-08-31T16:00:58;100481.22;;;21.65;70.95
35224;BME280;21367;51.930;8.112;2023-08-31T16:06:05;100472.13;;;20.72;72.30
35224;BME280;21367;51.930;8.112;2023-08-31T16:11:15;100475.69;;;20.01;76.04
35224;BME280;21367;51.930;8.112;2023-08-31T16:16:23;100486.97;;;19.69;80.78
35224;BME280;21367;51.930;8.112;2023-08-31T16:21:27;100477.41;;;19.86;79.18
35224;BME280;21367;51.930;8.112;2023-08-31T16:26:33;100482.53;;;19.42;83.44
35224;BME280;21367;51.930;8.112;2023-08-31T16:31:36;100474.66;;;19.21;86.30
35224;BME280;21367;51.930;8.112;2023-08-31T16:36:40;100474.63;;;19.02;89.33
35224;BME280;21367;51.930;8.112;2023-08-31T16:41:46;100497.75;;;18.52;93.13
35224;BME280;21367;51.930;8.112;2023-08-31T16:46:50;100503.00;;;18.56;90.28
35224;BME280;21367;51.930;8.112;2023-08-31T16:51:54;100505.50;;;18.41;95.31
35224;BME280;21367;51.930;8.112;2023-08-31T16:57:00;100504.88;;;17.69;96.81
35224;BME280;21367;51.930;8.112;2023-08-31T17:02:04;100503.38;;;17.91;99.96
35224;BME280;21367;51.930;8.112;2023-08-31T17:07:09;100497.75;;;16.78;100.00
35224;BME280;21367;51.930;8.112;2023-08-31T17:12:15;100484.63;;;17.37;100.00
35224;BME280;21367;51.930;8.112;2023-08-31T17:17:19;100483.34;;;17.77;98.43
35224;BME280;21367;51.930;8.112;2023-08-31T17:22:26;100488.19;;;17.47;100.00
35224;BME280;21367;51.930;8.112;2023-08-31T17:27:32;100488.34;;;17.64;100.00
35224;BME280;21367;51.930;8.112;2023-08-31T17:32:36;100508.50;;;17.05;100.00
35224;BME280;21367;51.930;8.112;2023-08-31T17:37:40;100510.19;;;17.02;100.00
35224;BME280;21367;51.930;8.112;2023-08-31T17:42:46;100513.78;;;17.13;100.00
35224;BME280;21367;51.930;8.112;2023-08-31T17:47:50;100513.50;;;16.92;100.00
35224;BME280;21367;51.930;8.112;2023-08-31T17:52:54;100513.13;;;16.67;100.00
35224;BME280;21367;51.930;8.112;2023-08-31T17:58:00;100517.31;;;16.57;100.00
35224;BME280;21367;51.930;8.112;2023-08-31T18:03:04;100519.44;;;16.24;100.00
35224;BME280;21367;51.930;8.112;2023-08-31T18:08:08;100524.72;;;16.30;100.00
35224;BME280;21367;51.930;8.112;2023-08-31T18:13:14;100522.25;;;15.86;100.00
35224;BME280;21367;51.930;8.112;2023-08-31T18:18:18;100526.25;;;16.20;100.00
35224;BME280;21367;51.930;8.112;2023-08-31T18:23:22;100525.34;;;16.15;100.00
35224;BME280;21367;51.930;8.112;2023-08-31T18:28:28;100535.41;;;15.96;100.00
35224;BME280;21367;51.930;8.112;2023-08-31T18:33:32;100548.78;;;15.72;100.00
35224;BME280;21367;51.930;8.112;2023-08-31T18:38:37;100559.59;;;15.52;100.00
35224;BME280;21367;51.930;8.112;2023-08-31T18:43:43;100562.25;;;15.55;100.00
35224;BME280;21367;51.930;8.112;2023-08-31T18:48:48;100560.78;;;15.25;100.00
35224;BME280;21367;51.930;8.112;2023-08-31T18:53:51;100564.53;;;15.39;100.00
35224;BME280;21367;51.930;8.112;2023-08-31T18:58:57;100566.66;;;15.18;100.00
35224;BME280;21367;51.930;8.112;2023-08-31T19:04:01;100567.28;;;15.06;100.00
35224;BME280;21367;51.930;8.112;2023-08-31T19:09:08;100580.41;;;15.15;100.00
35224;BME280;21367;51.930;8.112;2023-08-31T19:14:14;100588.22;;;14.79;100.00
35224;BME280;21367;51.930;8.112;2023-08-31T19:19:18;100583.19;;;14.84;100.00
35224;BME280;21367;51.930;8.112;2023-08-31T19:24:21;100588.59;;;14.23;100.00
35224;BME280;21367;51.930;8.112;2023-08-31T19:29:28;100584.63;;;14.36;100.00
35224;BME280;21367;51.930;8.112;2023-08-31T19:34:32;100593.69;;;14.20;100.00
35224;BME280;21367;51.930;8.112;2023-08-31T19:39:37;100590.88;;;14.11;100.00
35224;BME280;21367;51.930;8.112;2023-08-31T19:44:43;100589.09;;;14.10;100.00
35224;BME280;21367;51.930;8.112;2023-08-31T19:49:48;100582.03;;;14.36;100.00
35224;BME280;21367;51.930;8.112;2023-08-31T19:54:53;100582.69;;;14.29;100.00
35224;BME280;21367;51.930;8.112;2023-08-31T19:59:59;100589.34;;;14.19;100.00
35224;BME280;21367;51.930;8.112;2023-08-31T20:05:16;100593.25;;;14.03;100.00
35224;BME280;21367;51.930;8.112;2023-08-31T20:10:21;100593.94;;;14.29;100.00
35224;BME280;21367;51.930;8.112;2023-08-31T20:15:28;100589.88;;;14.06;100.00
35224;BME280;21367;51.930;8.112;2023-08-31T20:20:31;100587.53;;;14.15;100.00
35224;BME280;21367;51.930;8.112;2023-08-31T20:25:35;100594.72;;;14.27;100.00
35224;BME280;21367;51.930;8.112;2023-08-31T20:30:42;100595.66;;;13.97;100.00
35224;BME280;21367;51.930;8.112;2023-08-31T20:35:46;100610.13;;;13.91;100.00
35224;BME280;21367;51.930;8.112;2023-08-31T20:40:49;100614.50;;;13.92;100.00
35224;BME280;21367;51.930;8.112;2023-08-31T20:46:02;100611.25;;;14.00;100.00
35224;BME280;21367;51.930;8.112;2023-08-31T20:51:08;100610.72;;;13.79;100.00
35224;BME280;21367;51.930;8.112;2023-08-31T20:56:12;100607.00;;;14.01;100.00
35224;BME280;21367;51.930;8.112;2023-08-31T21:01:19;100612.16;;;14.01;100.00
35224;BME280;21367;51.930;8.112;2023-08-31T21:06:25;100618.94;;;13.97;100.00
35224;BME280;21367;51.930;8.112;2023-08-31T21:11:29;100617.34;;;13.71;100.00
35224;BME280;21367;51.930;8.112;2023-08-31T21:16:35;100620.78;;;13.70;100.00
35224;BME280;21367;51.930;8.112;2023-08-31T21:21:39;100620.28;;;13.83;100.00
35224;BME280;21367;51.930;8.112;2023-08-31T21:26:43;100621.66;;;13.70;100.00
35224;BME280;21367;51.930;8.112;2023-08-31T21:31:49;100624.56;;;13.82;100.00
35224;BME280;21367;51.930;8.112;2023-08-31T21:36:54;100625.28;;;13.77;100.00
35224;BME280;21367;51.930;8.112;2023-08-31T21:41:58;100628.28;;;13.62;100.00
35224;BME280;21367;51.930;8.112;2023-08-31T21:47:04;100632.50;;;13.58;100.00
35224;BME280;21367;51.930;8.112;2023-08-31T21:52:08;100629.56;;;13.46;100.00
35224;BME280;21367;51.930;8.112;2023-08-31T21:57:11;100627.38;;;13.60;100.00
35224;BME280;21367;51.930;8.112;2023-08-31T22:02:18;100632.16;;;13.46;100.00
35224;BME280;21367;51.930;8.112;2023-08-31T22:07:22;100634.69;;;13.45;100.00
35224;BME280;21367;51.930;8.112;2023-08-31T22:12:26;100629.81;;;13.54;100.00
35224;BME280;21367;51.930;8.112;2023-08-31T22:17:33;100637.53;;;13.25;100.00
35224;BME280;21367;51.930;8.112;2023-08-31T22:22:37;100639.91;;;13.46;100.00
35224;BME280;21367;51.930;8.112;2023-08-31T22:27:41;100632.03;;;13.41;100.00
35224;BME280;21367;51.930;8.112;2023-08-31T22:32:48;100637.50;;;13.52;100.00
35224;BME280;21367;51.930;8.112;2023-08-31T22:37:51;100625.28;;;13.47;100.00
35224;BME280;21367;51.930;8.112;2023-08-31T22:42:55;100625.06;;;13.39;100.00
35224;BME280;21367;51.930;8.112;2023-08-31T22:48:02;100628.47;;;13.38;100.00
35224;BME280;21367;51.930;8.112;2023-08-31T22:53:07;100622.25;;;13.31;100.00
35224;BME280;21367;51.930;8.112;2023-08-31T22:58:11;100617.16;;;13.34;100.00
35224;BME280;21367;51.930;8.112;2023-08-31T23:03:17;100631.94;;;13.38;100.00
35224;BME280;21367;51.930;8.112;2023-08-31T23:08:20;100638.78;;;13.38;100.00
35224;BME280;21367;51.930;8.112;2023-08-31T23:13:24;100637.97;;;13.39;100.00
35224;BME280;21367;51.930;8.112;2023-08-31T23:18:30;100635.66;;;13.48;100.00
35224;BME280;21367;51.930;8.112;2023-08-31T23:23:35;100630.53;;;13.50;100.00
35224;BME280;21367;51.930;8.112;2023-08-31T23:28:39;100638.88;;;13.41;100.00
35224;BME280;21367;51.930;8.112;2023-08-31T23:33:45;100632.81;;;13.39;100.00
35224;BME280;21367;51.930;8.112;2023-08-31T23:38:49;100627.28;;;13.27;100.00
35224;BME280;21367;51.930;8.112;2023-08-31T23:43:53;100639.41;;;13.02;100.00
35224;BME280;21367;51.930;8.112;2023-08-31T23:49:00;100640.81;;;12.92;100.00
35224;BME280;21367;51.930;8.112;2023-08-31T23:54:04;100630.22;;;12.83;100.00
35224;BME280;21367;51.930;8.112;2023-08-31T23:59:08;100635.34;;;12.82;100.00
